^^
Station Historical Data
Daily Summary for February 1, 2018 Units:  Metric    English   Both
« Previous Day
Next Day »
Daily Weekly Monthly Yearly Custom
  High: Low: Average:
Temperature: -17.8 °C 18 °C 26.3 °C
Dew Point: -17.8 °C 1.6 °C 8.3 °C
Humidity: Humidity% 11% 36%
Wind Speed: 0km/h 0km/h 16.7km/h
Wind Gust: 0km/h - -
Wind- - SW
Pressure: 0 hPa 999.5 hPa -
Precipitation: 0 mm    
Historical Graphs
 
 
Tabular Data for February 1, 2018
Time Temperature Dew Point Pressure Wind Wind Speed Wind Gust Humidity Rainfall Rate (Hourly) solar Conditions
-17.8 °C -17.8 °C 0 hPa Calm     Humidity% 0 mm SolarRadiationWatts/m^2 W/m2 Conditions
08:54 22.6 °C 12.5 °C 1004.6 hPa SW 9.7 km/h 11.3 km/h 53% 0 mm 478.0 W/m2
09:23 23.7 °C 12.4 °C 1004.6 hPa SW 11.1 km/h 14.5 km/h 49% 0 mm 563.0 W/m2
09:37 24.4 °C 12.4 °C 1004.6 hPa SW 9.7 km/h 11.3 km/h 47% 0 mm 613.0 W/m2
09:52 25.1 °C 12.3 °C 1004.6 hPa SW 14.3 km/h 14.5 km/h 45% 0 mm 661.0 W/m2
10:00 25.6 °C 12.1 °C 1004.6 hPa SW 11.1 km/h 11.3 km/h 43% 0 mm 693.0 W/m2
10:10 26.2 °C 12.3 °C 1004.6 hPa Calm   1.6 km/h 42% 0 mm 721.0 W/m2
10:22 26.7 °C 12 °C 1004.6 hPa Calm     40% 0 mm 752.0 W/m2
10:33 27.1 °C 12 °C 1004.3 hPa Calm     39% 0 mm 777.0 W/m2
10:53 28.3 °C 11.4 °C 1004.3 hPa Calm     35% 0 mm 830.0 W/m2
11:04 28.7 °C 11.3 °C 1004.3 hPa Calm   9.7 km/h 34% 0 mm 851.0 W/m2
11:13 29.5 °C 11.5 °C 1003.9 hPa Calm     33% 0 mm 872.0 W/m2
11:26 29.8 °C 11.3 °C 1003.9 hPa Calm     32% 0 mm 889.0 W/m2
12:27 32.6 °C 6.7 °C 1003.3 hPa WSW 6.4 km/h 11.3 km/h 20% 0 mm 970.0 W/m2
12:43 33.2 °C 7.2 °C 1003.3 hPa Calm   6.4 km/h 20% 0 mm 979.0 W/m2
12:56 33.7 °C 7.6 °C 1002.9 hPa Calm     20% 0 mm 979.0 W/m2
13:22 34.2 °C 4.8 °C 1002.6 hPa WNW 6.4 km/h 17.7 km/h 16% 0 mm 984.0 W/m2
13:38 34.8 °C 4.3 °C 1002.6 hPa WNW 13 km/h 20.9 km/h 15% 0 mm 981.0 W/m2
13:52 34.8 °C 6.1 °C 1002.3 hPa WNW 19.5 km/h 19.5 km/h 17% 0 mm 965.0 W/m2
14:02 34.6 °C 6 °C 1002.3 hPa Calm     17% 0 mm 949.0 W/m2
14:10 35.2 °C 4.7 °C 1001.9 hPa NW 1.4 km/h 16.1 km/h 15% 0 mm 947.0 W/m2
14:21 35.7 °C 4.1 °C 1001.9 hPa WNW 22.7 km/h 22.7 km/h 14% 0 mm 932.0 W/m2
14:35 35.8 °C 4.2 °C 1001.6 hPa Calm     14% 0 mm 905.0 W/m2
14:47 35.6 °C 5.9 °C 1001.6 hPa WNW 9.7 km/h 12.9 km/h 16% 0 mm 884.0 W/m2
14:58 35.9 °C 5.2 °C 1001.2 hPa WNW 13 km/h 19.3 km/h 15% 0 mm 867.0 W/m2
15:07 36.2 °C 3.4 °C 1001.2 hPa WNW 16.3 km/h 19.3 km/h 13% 0 mm 847.0 W/m2
15:53 36.9 °C 1.6 °C 1000.6 hPa WNW 3.2 km/h 19.3 km/h 11% 0 mm 737.0 W/m2
16:09 37.4 °C 2 °C 1000.2 hPa WNW 19.5 km/h 30.6 km/h 11% 0 mm 694.0 W/m2
16:24 37.7 °C 4.6 °C 999.5 hPa West 27.4 km/h 35.4 km/h 13% 0 mm 640.0 W/m2
16:38 37.1 °C 6.2 °C 999.9 hPa SSW 24.1 km/h 27.4 km/h 15% 0 mm 596.0 W/m2
16:49 36.8 °C 6.9 °C 999.9 hPa SSW 24.1 km/h 32.2 km/h 16% 0 mm 557.0 W/m2
17:02 36.2 °C 8.1 °C 999.9 hPa SSW 37 km/h 38.6 km/h 18% 0 mm 513.0 W/m2
17:44 33.3 °C 7.3 °C 1000.2 hPa SSW 24.1 km/h 32.2 km/h 20% 0 mm 374.0 W/m2
17:54 32.9 °C 7.7 °C 1000.6 hPa SW 28.8 km/h 35.4 km/h 21% 0 mm 336.0 W/m2
18:19 31.6 °C 9.8 °C 1000.9 hPa South 30.6 km/h 32.2 km/h 26% 0 mm 251.0 W/m2
19:26 28.3 °C 10.5 °C 1002.3 hPa SSW 28.8 km/h 35.4 km/h 33% 0 mm 18.0 W/m2
19:41 27.2 °C 10.4 °C 1002.6 hPa SSW 30.6 km/h 33.8 km/h 35% 0 mm 9.0 W/m2
19:55 26.4 °C 10.5 °C 1002.9 hPa SSW 22.7 km/h 33.8 km/h 37% 0 mm 0.0 W/m2
20:06 25.9 °C 10.5 °C 1002.9 hPa SSW 24.1 km/h 32.2 km/h 38% 0 mm 0.0 W/m2
20:21 25.1 °C 9 °C 1003.6 hPa SSW 32 km/h 38.6 km/h 36% 0 mm 0.0 W/m2
20:34 24.3 °C 8.7 °C 1004.3 hPa South 32 km/h 32.2 km/h 37% 0 mm 0.0 W/m2
21:15 22.3 °C 9.1 °C 1005 hPa South 33.8 km/h 40.2 km/h 43% 0 mm 0.0 W/m2
21:35 22.2 °C 8.3 °C 1005.3 hPa SSW 35.2 km/h 41.8 km/h 41% 0 mm 0.0 W/m2
21:46 21.4 °C 8.6 °C 1005.6 hPa SSW 28.8 km/h 35.4 km/h 44% 0 mm 0.0 W/m2
22:00 21.2 °C 9.1 °C 1006 hPa SSW 27.4 km/h 33.8 km/h 46% 0 mm 0.0 W/m2
22:10 20.9 °C 8.8 °C 1006.3 hPa SSW 17.7 km/h 27.4 km/h 46% 0 mm 0.0 W/m2
22:18 20.7 °C 8.7 °C 1006.7 hPa SSW 14.3 km/h 29 km/h 46% 0 mm 0.0 W/m2
22:28 20.2 °C 8.8 °C 1006.7 hPa SSW 20.9 km/h 33.8 km/h 48% 0 mm 0.0 W/m2
22:33 20 °C 8.7 °C 1006.7 hPa SSW 27.4 km/h 35.4 km/h 48% 0 mm 0.0 W/m2
22:41 19.5 °C 9.1 °C 1006.7 hPa SSW 24.1 km/h 30.6 km/h 51% 0 mm 0.0 W/m2
22:46 19.3 °C 9.5 °C 1006.7 hPa SSW 25.9 km/h 29 km/h 53% 0 mm 0.0 W/m2
22:51 19.2 °C 9.4 °C 1007 hPa SSW 28.8 km/h 30.6 km/h 53% 0 mm 0.0 W/m2
23:01 19.1 °C 9.8 °C 1007 hPa SSW 17.7 km/h 20.9 km/h 55% 0 mm 0.0 W/m2
23:06 18.9 °C 9.9 °C 1007 hPa SSW 17.7 km/h 25.7 km/h 56% 0 mm 0.0 W/m2
23:11 18.8 °C 10.1 °C 1007 hPa SSW 20.9 km/h 25.7 km/h 57% 0 mm 0.0 W/m2
23:21 18.6 °C 10.4 °C 1007 hPa SSW 17.7 km/h 29 km/h 59% 0 mm 0.0 W/m2
23:26 18.4 °C 10.5 °C 1007 hPa SW 24.1 km/h 24.1 km/h 60% 0 mm 0.0 W/m2
23:31 18.3 °C 10.6 °C 1007.3 hPa SSW 17.7 km/h 25.7 km/h 61% 0 mm 0.0 W/m2
23:36 18.3 °C 10.6 °C 1007.3 hPa SSW 16.3 km/h 19.3 km/h 61% 0 mm 0.0 W/m2
23:41 18.2 °C 10.8 °C 1007 hPa SSW 19.5 km/h 24.1 km/h 62% 0 mm 0.0 W/m2
23:46 18.2 °C 10.8 °C 1007 hPa SSW 20.9 km/h 29 km/h 62% 0 mm 0.0 W/m2
23:51 18.1 °C 10.9 °C 1007.3 hPa SSW 19.5 km/h 22.5 km/h 63% 0 mm 0.0 W/m2
23:56 18 °C 11.1 °C 1007.3 hPa SSW 20.9 km/h 24.1 km/h 64% 0 mm 0.0 W/m2
Canyon Roadhouse, Fishriver Canyon, Namibia
Compliments of Weather Underground - 2 mb